Time;durP1;ratioP1;P1;durP2;ratioP2;P2;SDS_P1;SDS_P2;PMS_P1;PMS_P2;Temp;Humidity;BMP_temperature;BMP_pressure;BME280_temperature;BME280_humidity;BME280_pressure;Samples;Min_cycle;Max_cycle;Signal;HPM_P1;HPM_P2
2023/05/12 00:03:52;;;;;;;22.77;15.27;;;13.30;99.90;;;;;;2612635;54;20126;-76
2023/05/12 00:09:40;;;;;;;28.87;19.13;;;13.30;99.90;;;;;;2612039;39;20747;-76
2023/05/12 00:15:28;;;;;;;41.20;21.67;;;13.40;99.90;;;;;;2613605;54;20414;-75
2023/05/12 00:21:15;;;;;;;33.40;22.50;;;13.40;99.90;;;;;;2612765;54;20158;-75
2023/05/12 00:24:31;;;;;;;40.00;24.70;;;13.40;99.90;;;;;;2612426;54;20423;-76
2023/05/12 00:26:57;;;;;;;36.60;25.30;;;13.40;99.90;;;;;;2612355;54;20242;-76
2023/05/12 00:32:45;;;;;;;41.97;26.00;;;13.50;99.90;;;;;;2611896;54;20891;-75
2023/05/12 00:38:36;;;;;;;44.00;27.67;;;13.50;99.90;;;;;;2613084;54;20367;-75
2023/05/12 00:44:24;;;;;;;47.90;29.50;;;13.50;99.90;;;;;;2613317;54;21230;-76
2023/05/12 00:50:12;;;;;;;46.30;30.83;;;13.50;99.90;;;;;;2611247;54;20141;-76
2023/05/12 00:55:59;;;;;;;46.40;31.57;;;13.60;99.90;;;;;;2613139;54;20122;-75
2023/05/12 01:01:49;;;;;;;46.10;30.00;;;13.60;99.90;;;;;;2614734;31;20555;-69
2023/05/12 01:07:38;;;;;;;39.03;26.80;;;13.60;99.90;;;;;;2614124;54;20394;-70
2023/05/12 01:13:27;;;;;;;43.50;27.63;;;13.60;99.90;;;;;;2615132;54;20398;-70
2023/05/12 01:29:12;;;;;;;27.50;19.50;;;13.60;99.90;;;;;;2612058;54;20357;-70
2023/05/12 01:35:00;;;;;;;25.20;17.17;;;13.70;99.90;;;;;;2615184;54;20374;-70
2023/05/12 01:40:48;;;;;;;24.23;15.00;;;13.60;99.90;;;;;;2612407;54;20122;-69
2023/05/12 01:46:36;;;;;;;14.60;10.33;;;13.60;99.90;;;;;;2613246;54;20130;-69
2023/05/12 01:52:24;;;;;;;14.13;10.00;;;13.50;99.90;;;;;;2612126;54;20134;-69
2023/05/12 01:58:11;;;;;;;10.90;9.03;;;13.50;99.90;;;;;;2611764;54;20698;-69
2023/05/12 02:03:59;;;;;;;12.33;9.17;;;13.50;99.90;;;;;;2613307;39;20533;-69
2023/05/12 02:09:47;;;;;;;10.70;7.37;;;13.50;99.90;;;;;;2612820;46;20146;-70
2023/05/12 02:15:35;;;;;;;7.20;6.33;;;13.40;99.90;;;;;;2611601;54;20146;-69
2023/05/12 02:21:22;;;;;;;10.20;7.03;;;13.40;99.90;;;;;;2612663;54;20142;-70
2023/05/12 02:24:28;;;;;;;8.33;5.67;;;13.40;99.90;;;;;;2613202;54;20408;-69
2023/05/12 02:26:54;;;;;;;8.63;6.37;;;13.40;99.90;;;;;;2612518;54;20169;-68
2023/05/12 02:32:42;;;;;;;8.17;6.27;;;13.40;99.90;;;;;;2613563;39;20541;-69
2023/05/12 02:38:29;;;;;;;9.90;5.50;;;13.40;99.90;;;;;;2614121;54;20254;-67
2023/05/12 02:44:17;;;;;;;8.73;5.13;;;13.30;99.90;;;;;;2612803;39;20525;-68
2023/05/12 02:50:05;;;;;;;11.37;5.80;;;13.20;99.90;;;;;;2613802;54;20396;-75
2023/05/12 02:55:53;;;;;;;5.90;5.00;;;13.10;99.90;;;;;;2612157;54;20378;-69
2023/05/12 03:01:41;;;;;;;5.40;4.17;;;13.00;99.90;;;;;;2613664;39;20539;-68
2023/05/12 03:07:29;;;;;;;6.13;4.93;;;12.90;99.90;;;;;;2612023;54;20158;-69
2023/05/12 03:10:32;;;;;;;8.03;4.70;;;13.00;99.90;;;;;;2613662;54;20416;-69
2023/05/12 03:12:57;;;;;;;6.10;5.50;;;13.00;99.90;;;;;;2612463;54;20411;-68
2023/05/12 03:18:45;;;;;;;9.40;6.97;;;13.00;99.90;;;;;;2612959;54;20126;-68
2023/05/12 03:24:33;;;;;;;18.43;11.00;;;13.00;99.90;;;;;;2611598;54;20142;-69
2023/05/12 03:30:21;;;;;;;23.00;14.57;;;12.90;99.90;;;;;;2611770;54;20411;-69
2023/05/12 03:36:09;;;;;;;26.83;16.60;;;12.90;99.90;;;;;;2612408;54;20258;-68
2023/05/12 03:41:57;;;;;;;28.97;18.90;;;12.90;99.90;;;;;;2613498;54;20129;-69
2023/05/12 03:47:44;;;;;;;27.37;19.00;;;12.90;99.90;;;;;;2611418;54;20151;-68
2023/05/12 03:53:32;;;;;;;23.80;16.77;;;12.80;99.90;;;;;;2611198;54;20669;-69
2023/05/12 03:59:20;;;;;;;22.90;15.00;;;12.80;99.90;;;;;;2612077;39;20561;-69
2023/05/12 04:05:08;;;;;;;19.70;13.57;;;12.80;99.90;;;;;;2611520;54;20418;-68
2023/05/12 04:10:57;;;;;;;15.73;11.60;;;12.90;99.90;;;;;;2611207;54;20387;-69
2023/05/12 04:16:45;;;;;;;16.77;11.43;;;12.90;99.90;;;;;;2611525;54;21000;-68
2023/05/12 04:22:33;;;;;;;16.00;12.67;;;13.00;99.90;;;;;;2613151;54;20154;-69
2023/05/12 04:28:20;;;;;;;15.50;12.07;;;12.90;99.90;;;;;;2611558;54;20363;-69
2023/05/12 04:34:08;;;;;;;13.93;10.50;;;13.00;99.90;;;;;;2613392;54;20118;-68
2023/05/12 04:39:56;;;;;;;10.53;9.43;;;13.00;99.90;;;;;;2612790;54;20130;-69
2023/05/12 04:45:44;;;;;;;15.40;10.40;;;13.10;99.90;;;;;;2611372;54;20154;-69
2023/05/12 04:51:32;;;;;;;12.47;8.60;;;13.10;99.90;;;;;;2611853;54;20122;-69
2023/05/12 04:57:20;;;;;;;11.03;9.17;;;13.20;99.90;;;;;;2611740;46;20438;-69
2023/05/12 05:03:07;;;;;;;9.13;8.20;;;13.40;99.90;;;;;;2611528;54;20134;-68
2023/05/12 05:08:56;;;;;;;11.50;7.87;;;13.30;99.90;;;;;;2612225;54;20122;-69
2023/05/12 05:14:43;;;;;;;8.40;7.40;;;13.40;99.90;;;;;;2613022;54;20464;-69
2023/05/12 05:20:33;;;;;;;7.00;6.30;;;13.50;99.90;;;;;;2610787;54;20243;-73
2023/05/12 05:29:49;;;;;;;7.27;5.70;;;13.60;99.90;;;;;;2609482;54;20479;-69
2023/05/12 05:35:36;;;;;;;7.50;5.90;;;13.70;99.90;;;;;;2610680;54;20388;-69
2023/05/12 05:41:24;;;;;;;5.53;5.03;;;13.90;99.90;;;;;;2609106;54;20158;-70
2023/05/12 05:47:12;;;;;;;7.47;6.70;;;13.80;99.90;;;;;;2610770;54;20150;-69
2023/05/12 05:52:59;;;;;;;6.17;5.57;;;13.90;99.90;;;;;;2610759;54;20122;-68
2023/05/12 05:58:47;;;;;;;9.03;7.63;;;14.10;99.90;;;;;;2613986;54;20247;-69
2023/05/12 06:04:35;;;;;;;8.60;7.90;;;14.10;99.90;;;;;;2611915;54;20787;-68
2023/05/12 06:10:23;;;;;;;8.77;7.97;;;14.30;99.90;;;;;;2610711;54;20142;-69
2023/05/12 06:16:10;;;;;;;7.43;6.70;;;14.50;99.90;;;;;;2611839;39;20491;-68
2023/05/12 06:21:58;;;;;;;8.13;7.30;;;15.00;99.90;;;;;;2610885;54;20280;-68
2023/05/12 06:25:16;;;;;;;10.83;8.70;;;15.00;99.90;;;;;;2610361;54;20431;-69
2023/05/12 06:27:42;;;;;;;7.27;6.57;;;14.70;99.90;;;;;;2613240;39;20574;-68
2023/05/12 06:33:30;;;;;;;7.10;6.40;;;15.00;99.90;;;;;;2610635;54;20137;-68
2023/05/12 06:39:18;;;;;;;6.90;6.20;;;14.70;99.90;;;;;;2612223;54;20115;-68
2023/05/12 06:45:06;;;;;;;8.73;6.60;;;14.60;99.90;;;;;;2607985;54;20653;-68
2023/05/12 06:50:54;;;;;;;11.30;7.60;;;14.60;99.90;;;;;;2611031;54;20383;-67
2023/05/12 06:56:41;;;;;;;7.97;7.17;;;14.60;99.90;;;;;;2610731;54;20150;-68
2023/05/12 07:02:29;;;;;;;15.40;6.47;;;14.30;99.90;;;;;;2608142;54;20265;-69
2023/05/12 07:08:17;;;;;;;7.60;6.23;;;14.40;99.90;;;;;;2611424;54;20371;-67
2023/05/12 07:14:05;;;;;;;7.87;6.27;;;14.30;99.90;;;;;;2610728;54;20122;-68
2023/05/12 07:19:52;;;;;;;6.90;6.20;;;14.20;99.90;;;;;;2612135;54;20126;-68
2023/05/12 07:29:49;;;;;;;7.20;5.93;;;14.10;99.90;;;;;;2611396;54;20375;-69
2023/05/12 07:35:36;;;;;;;7.20;6.50;;;14.10;99.90;;;;;;2613766;39;20755;-68
2023/05/12 07:41:24;;;;;;;7.80;7.10;;;14.20;99.90;;;;;;2611983;54;20998;-68
2023/05/12 07:47:11;;;;;;;7.93;7.03;;;14.20;99.90;;;;;;2613175;54;20130;-68
2023/05/12 07:52:59;;;;;;;8.17;7.37;;;14.40;99.90;;;;;;2613740;54;20155;-69
2023/05/12 07:58:48;;;;;;;7.27;6.57;;;14.60;99.90;;;;;;2611944;54;20390;-68
2023/05/12 08:04:36;;;;;;;8.30;6.30;;;14.80;99.90;;;;;;2612857;54;20138;-67
2023/05/12 08:10:28;;;;;;;9.07;6.83;;;14.70;99.90;;;;;;2613393;54;20592;-68
2023/05/12 08:16:16;;;;;;;7.70;6.90;;;14.80;99.90;;;;;;2613998;54;20426;-67
2023/05/12 08:22:04;;;;;;;7.63;5.97;;;14.80;99.90;;;;;;2613799;46;20181;-69
2023/05/12 08:25:17;;;;;;;6.53;6.03;;;15.20;99.90;;;;;;2611749;54;21068;-69
2023/05/12 08:27:42;;;;;;;6.70;6.07;;;15.40;99.90;;;;;;2612102;54;20162;-68
2023/05/12 08:33:30;;;;;;;6.53;5.93;;;15.50;99.90;;;;;;2613324;54;20130;-69
2023/05/12 08:39:18;;;;;;;19.93;6.27;;;15.70;99.90;;;;;;2611667;54;20134;-68
2023/05/12 08:45:07;;;;;;;6.20;5.70;;;16.10;99.90;;;;;;2613528;39;20846;-68
2023/05/12 08:50:56;;;;;;;8.53;5.90;;;15.90;99.90;;;;;;2613022;54;20379;-68
2023/05/12 08:56:45;;;;;;;6.40;5.90;;;16.50;99.90;;;;;;2612736;54;20910;-68
2023/05/12 09:02:36;;;;;;;7.93;6.90;;;16.80;99.90;;;;;;2611890;54;20414;-68
2023/05/12 09:08:25;;;;;;;6.90;6.20;;;16.60;99.90;;;;;;2613708;39;20816;-68
2023/05/12 09:14:24;;;;;;;7.20;6.70;;;17.10;99.90;;;;;;2614159;39;20744;-69
2023/05/12 09:20:12;;;;;;;7.00;6.50;;;17.30;99.90;;;;;;2613098;54;20391;-68
2023/05/12 09:29:47;;;;;;;8.23;7.53;;;17.60;99.90;;;;;;2613791;54;20383;-68
2023/05/12 09:35:44;;;;;;;7.80;7.30;;;17.80;99.90;;;;;;2609099;54;20414;-67
2023/05/12 09:41:39;;;;;;;7.70;7.30;;;18.40;99.90;;;;;;2614789;54;20378;-68
2023/05/12 09:47:32;;;;;;;8.17;7.57;;;18.30;99.90;;;;;;2611862;54;20470;-68
2023/05/12 09:53:21;;;;;;;7.97;7.57;;;18.70;99.90;;;;;;2613389;39;20853;-68
2023/05/12 09:59:12;;;;;;;8.63;8.13;;;18.50;99.90;;;;;;2614096;54;20366;-68
2023/05/12 10:02:24;;;;;;;9.80;9.00;;;19.10;99.90;;;;;;2611580;54;20402;-68
2023/05/12 10:04:53;;;;;;;8.80;8.13;;;18.50;99.90;;;;;;2611960;54;20387;-68
2023/05/12 10:10:42;;;;;;;9.90;8.97;;;19.00;99.90;;;;;;2610488;39;20842;-68
2023/05/12 10:16:31;;;;;;;9.23;8.70;;;19.20;99.90;;;;;;2610534;54;20395;-68
2023/05/12 10:22:21;;;;;;;9.73;8.80;;;18.90;99.90;;;;;;2610041;54;20371;-68
2023/05/12 10:25:17;;;;;;;9.93;9.13;;;18.40;99.90;;;;;;2609450;39;20970;-69
2023/05/12 10:27:44;;;;;;;10.33;9.27;;;18.90;99.90;;;;;;2609720;47;20419;-69
2023/05/12 10:33:32;;;;;;;9.87;9.17;;;18.90;99.90;;;;;;2611169;54;20949;-69
2023/05/12 10:46:48;;;;;;;9.50;8.90;;;19.00;99.90;;;;;;2611304;54;20908;-68
2023/05/12 10:52:36;;;;;;;9.60;9.10;;;19.10;99.90;;;;;;2613213;54;20863;-68
2023/05/12 10:58:23;;;;;;;9.90;9.30;;;18.80;99.90;;;;;;2613908;54;20438;-68
2023/05/12 11:04:16;;;;;;;11.23;10.07;;;18.50;99.90;;;;;;2608221;54;20134;-68
2023/05/12 11:10:04;;;;;;;9.90;9.10;;;18.60;99.90;;;;;;2609216;54;20371;-68
2023/05/12 11:15:52;;;;;;;9.70;9.20;;;18.90;99.90;;;;;;2610297;54;20383;-68
2023/05/12 11:21:40;;;;;;;9.73;9.23;;;19.20;99.90;;;;;;2608324;54;20917;-68
2023/05/12 11:27:28;;;;;;;11.20;10.60;;;19.90;99.90;;;;;;2610141;54;20442;-68
2023/05/12 11:33:20;;;;;;;10.43;9.70;;;19.80;99.90;;;;;;2613603;54;20375;-68
2023/05/12 11:39:19;;;;;;;10.70;10.03;;;20.10;99.90;;;;;;2612308;54;20371;-68
2023/05/12 11:51:43;;;;;;;10.00;9.50;;;20.30;99.90;;;;;;2613260;54;20472;-68
2023/05/12 11:57:33;;;;;;;11.17;10.57;;;20.20;99.90;;;;;;2611931;54;20122;-67
2023/05/12 12:03:20;;;;;;;11.60;10.60;;;20.20;99.90;;;;;;2609481;46;20483;-68
2023/05/12 12:09:08;;;;;;;11.37;10.57;;;20.40;99.90;;;;;;2608107;39;20602;-68
2023/05/12 12:14:59;;;;;;;11.63;11.03;;;20.60;99.90;;;;;;2609170;54;20499;-68
2023/05/12 12:20:46;;;;;;;11.43;10.73;;;20.50;98.70;;;;;;2608259;54;20371;-68
2023/05/12 12:29:59;;;;;;;10.57;9.87;;;20.00;99.90;;;;;;2610032;54;20402;-68
2023/05/12 12:35:47;;;;;;;23.33;10.00;;;20.20;99.90;;;;;;2611700;54;20366;-68
2023/05/12 12:41:34;;;;;;;12.37;11.50;;;20.50;99.90;;;;;;2611232;39;20208;-69
2023/05/12 12:47:23;;;;;;;11.27;10.57;;;20.50;99.90;;;;;;2611267;54;20811;-68
2023/05/12 12:53:11;;;;;;;11.50;10.90;;;20.30;99.90;;;;;;2611405;54;20366;-68
2023/05/12 12:58:58;;;;;;;11.30;10.60;;;20.10;99.90;;;;;;2612439;54;20170;-68
2023/05/12 13:04:46;;;;;;;11.93;11.23;;;20.30;99.90;;;;;;2610575;54;20158;-69
2023/05/12 13:10:34;;;;;;;12.50;11.70;;;20.70;99.90;;;;;;2610537;39;20542;-68
2023/05/12 13:16:22;;;;;;;11.80;11.10;;;21.30;99.90;;;;;;2611914;54;20158;-68
2023/05/12 13:22:09;;;;;;;14.03;13.13;;;21.40;99.30;;;;;;2613486;54;20219;-68
2023/05/12 13:25:31;;;;;;;12.37;11.60;;;21.50;95.40;;;;;;2612035;54;20431;-68
2023/05/12 13:27:57;;;;;;;11.60;10.63;;;22.00;93.00;;;;;;2611835;54;20246;-68
2023/05/12 13:33:44;;;;;;;11.37;10.77;;;22.40;85.60;;;;;;2612962;54;20126;-68
2023/05/12 13:39:32;;;;;;;12.20;11.60;;;22.30;72.60;;;;;;2610174;54;20645;-69
2023/05/12 13:45:20;;;;;;;12.43;11.83;;;21.40;67.80;;;;;;2611254;39;20675;-69
2023/05/12 13:51:07;;;;;;;12.47;11.67;;;21.40;77.30;;;;;;2611093;39;20230;-67
2023/05/12 13:56:55;;;;;;;13.27;12.23;;;21.50;80.90;;;;;;2613331;54;20162;-69
2023/05/12 14:02:43;;;;;;;13.80;12.57;;;21.30;76.60;;;;;;2608936;54;20126;-68
2023/05/12 14:08:30;;;;;;;13.33;12.23;;;21.30;77.10;;;;;;2609044;54;20130;-67
2023/05/12 14:14:19;;;;;;;13.60;12.80;;;21.00;73.10;;;;;;2610518;54;20178;-69
2023/05/12 14:20:07;;;;;;;12.47;11.57;;;21.20;69.10;;;;;;2610278;39;20604;-68
2023/05/12 14:30:04;;;;;;;12.50;11.80;;;21.30;50.80;;;;;;2609689;54;20403;-68
2023/05/12 14:35:51;;;;;;;14.13;13.33;;;22.40;46.60;;;;;;2609836;54;20996;-69
2023/05/12 14:41:38;;;;;;;13.00;12.10;;;23.10;42.50;;;;;;2608525;54;20130;-68
2023/05/12 14:47:26;;;;;;;11.70;11.10;;;21.40;50.10;;;;;;2609047;54;20717;-68
2023/05/12 14:53:14;;;;;;;13.57;12.97;;;20.20;69.00;;;;;;2613240;39;20514;-68
2023/05/12 14:59:02;;;;;;;13.80;13.00;;;19.50;89.80;;;;;;2613088;54;20131;-69
2023/05/12 15:02:06;;;;;;;14.70;13.80;;;19.40;92.10;;;;;;2612594;54;20488;-68
2023/05/12 15:04:31;;;;;;;12.30;11.50;;;19.20;95.90;;;;;;2613740;46;20410;-68
2023/05/12 15:10:19;;;;;;;12.23;10.93;;;19.40;98.10;;;;;;2613117;54;20118;-69
2023/05/12 15:16:07;;;;;;;12.83;12.03;;;19.00;94.60;;;;;;2613311;39;20566;-68
2023/05/12 15:21:55;;;;;;;12.03;10.73;;;18.80;98.10;;;;;;2613944;39;20518;-69
2023/05/12 15:27:42;;;;;;;13.00;7.73;;;17.70;99.90;;;;;;2613769;54;20185;-68
2023/05/12 15:33:30;;;;;;;9.00;6.53;;;16.90;99.90;;;;;;2613521;39;20962;-68
2023/05/12 15:39:18;;;;;;;7.20;6.47;;;16.40;99.90;;;;;;2609747;39;20277;-69
2023/05/12 15:45:07;;;;;;;7.20;6.60;;;16.30;99.90;;;;;;2612448;54;20123;-68
2023/05/12 15:50:55;;;;;;;7.57;6.77;;;16.40;99.90;;;;;;2613296;54;20423;-69
2023/05/12 15:56:43;;;;;;;10.20;6.50;;;17.40;99.90;;;;;;2612957;54;20350;-69
2023/05/12 16:02:31;;;;;;;7.73;6.43;;;18.00;99.90;;;;;;2610930;54;20154;-68
2023/05/12 16:08:19;;;;;;;9.00;6.30;;;17.70;99.90;;;;;;2608903;54;20127;-69
2023/05/12 16:14:06;;;;;;;6.83;6.33;;;17.40;99.90;;;;;;2610439;54;20395;-72
2023/05/12 16:19:55;;;;;;;8.73;6.20;;;17.50;99.90;;;;;;2612668;54;20151;-69
2023/05/12 16:30:01;;;;;;;7.43;6.80;;;17.30;99.90;;;;;;2613969;54;20387;-68
2023/05/12 16:35:49;;;;;;;8.77;7.80;;;17.70;99.90;;;;;;2612922;54;20374;-69
2023/05/12 16:41:37;;;;;;;8.20;7.60;;;18.40;99.90;;;;;;2614245;54;20418;-69
2023/05/12 16:47:24;;;;;;;11.00;10.10;;;17.80;99.90;;;;;;2612576;54;20126;-69
2023/05/12 16:53:12;;;;;;;8.07;7.33;;;17.60;99.90;;;;;;2613190;54;20145;-69
2023/05/12 16:59:00;;;;;;;11.70;7.87;;;17.60;99.90;;;;;;2613776;54;20130;-69
2023/05/12 17:04:48;;;;;;;11.77;8.23;;;17.40;99.90;;;;;;2613778;54;20146;-69
2023/05/12 17:10:35;;;;;;;9.53;8.73;;;17.70;99.90;;;;;;2612973;54;20145;-69
2023/05/12 17:16:23;;;;;;;9.80;8.90;;;17.60;99.90;;;;;;2612530;39;20767;-69
2023/05/12 17:22:11;;;;;;;9.17;8.57;;;17.80;99.90;;;;;;2614337;54;20605;-69
2023/05/12 17:25:31;;;;;;;9.20;8.50;;;17.90;99.90;;;;;;2612190;54;20427;-69
2023/05/12 17:27:57;;;;;;;9.47;8.67;;;17.80;99.90;;;;;;2613085;54;20426;-69
2023/05/12 17:33:44;;;;;;;10.50;9.40;;;17.80;99.90;;;;;;2613319;46;20164;-70
2023/05/12 17:39:33;;;;;;;9.53;8.77;;;17.80;99.90;;;;;;2612802;54;20143;-69
2023/05/12 17:45:20;;;;;;;11.40;10.20;;;17.80;99.90;;;;;;2611632;54;20427;-69
2023/05/12 17:51:08;;;;;;;10.97;9.80;;;17.70;99.90;;;;;;2615049;39;20652;-69
2023/05/12 17:56:56;;;;;;;13.97;10.90;;;17.80;99.90;;;;;;2611991;54;20175;-69
2023/05/12 18:02:44;;;;;;;9.80;8.90;;;17.70;99.90;;;;;;2613997;54;20386;-69
2023/05/12 18:08:32;;;;;;;10.97;9.87;;;17.60;99.90;;;;;;2613207;54;20178;-68
2023/05/12 18:14:19;;;;;;;12.03;11.10;;;17.50;99.90;;;;;;2614115;54;20716;-69
2023/05/12 18:20:07;;;;;;;11.13;10.13;;;17.30;99.90;;;;;;2613777;54;20126;-68
2023/05/12 18:29:58;;;;;;;12.57;11.33;;;16.80;99.90;;;;;;2614078;54;20355;-69
2023/05/12 18:35:46;;;;;;;14.20;12.27;;;16.60;99.90;;;;;;2612486;54;20395;-68
2023/05/12 18:41:34;;;;;;;15.37;13.97;;;16.40;99.90;;;;;;2614510;54;20226;-69
2023/05/12 18:47:21;;;;;;;14.40;13.13;;;16.10;99.90;;;;;;2613577;39;20632;-69
2023/05/12 18:53:09;;;;;;;16.37;14.67;;;15.90;99.90;;;;;;2614265;54;20158;-69
2023/05/12 18:58:57;;;;;;;15.90;14.30;;;15.70;99.90;;;;;;2613998;54;20126;-68
2023/05/12 19:04:45;;;;;;;16.23;14.33;;;15.50;99.90;;;;;;2613260;54;20154;-69
2023/05/12 19:10:32;;;;;;;19.53;15.50;;;15.40;99.90;;;;;;2613212;54;20671;-69
2023/05/12 19:16:22;;;;;;;15.80;14.13;;;15.20;99.90;;;;;;2613853;54;20141;-68
2023/05/12 19:22:10;;;;;;;18.40;14.40;;;15.10;99.90;;;;;;2614612;39;20982;-69
2023/05/12 19:25:31;;;;;;;17.27;15.67;;;15.00;99.90;;;;;;2613477;54;20412;-68
2023/05/12 19:27:57;;;;;;;15.30;13.97;;;15.10;99.90;;;;;;2612591;54;20238;-68
2023/05/12 19:33:44;;;;;;;16.20;14.57;;;14.80;99.90;;;;;;2613689;54;20126;-69
2023/05/12 19:39:32;;;;;;;18.67;16.97;;;14.60;99.90;;;;;;2614135;54;20173;-68
2023/05/12 19:45:20;;;;;;;16.93;14.77;;;14.60;99.90;;;;;;2609658;39;21025;-68
2023/05/12 19:51:08;;;;;;;18.27;16.43;;;14.40;99.90;;;;;;2610070;54;20672;-69
2023/05/12 19:56:55;;;;;;;19.57;17.57;;;14.30;99.90;;;;;;2612926;39;20477;-69
2023/05/12 20:02:43;;;;;;;22.20;18.67;;;14.20;99.90;;;;;;2611464;54;20129;-70
2023/05/12 20:08:31;;;;;;;20.37;18.30;;;14.00;99.90;;;;;;2612475;54;20161;-69
2023/05/12 20:14:19;;;;;;;23.00;19.73;;;13.90;99.90;;;;;;2607454;47;20384;-68
2023/05/12 20:20:09;;;;;;;22.43;20.33;;;13.80;99.90;;;;;;2609233;39;20550;-69
2023/05/12 20:30:01;;;;;;;21.53;19.40;;;13.70;99.90;;;;;;2606127;39;20755;-69
2023/05/12 20:35:48;;;;;;;22.40;19.93;;;13.70;99.90;;;;;;2604099;54;20395;-69
2023/05/12 20:41:40;;;;;;;26.13;21.60;;;13.40;99.90;;;;;;2603515;54;20593;-70
2023/05/12 20:47:29;;;;;;;22.33;19.17;;;13.20;99.90;;;;;;2605869;54;20427;-69
2023/05/12 20:53:17;;;;;;;23.47;21.13;;;12.90;99.90;;;;;;2604048;54;20362;-69
2023/05/12 20:59:04;;;;;;;28.77;20.40;;;12.60;99.90;;;;;;2601655;54;20146;-69
2023/05/12 21:04:53;;;;;;;23.27;20.83;;;12.60;99.90;;;;;;2602193;54;20138;-69
2023/05/12 21:10:41;;;;;;;24.87;21.67;;;12.80;99.90;;;;;;2607659;39;20814;-69
2023/05/12 21:16:28;;;;;;;24.53;22.10;;;12.60;99.90;;;;;;2606366;54;20145;-70
2023/05/12 21:22:16;;;;;;;28.03;21.90;;;12.40;99.90;;;;;;2610564;39;20575;-69
2023/05/12 21:25:31;;;;;;;26.97;22.63;;;12.20;99.90;;;;;;2609403;47;20415;-69
2023/05/12 21:27:57;;;;;;;29.23;24.23;;;12.10;99.90;;;;;;2610204;54;20150;-69
2023/05/12 21:33:44;;;;;;;34.27;25.57;;;12.20;99.90;;;;;;2608279;54;20154;-69
2023/05/12 21:39:32;;;;;;;28.87;23.60;;;12.10;99.90;;;;;;2605707;54;20150;-69
2023/05/12 21:45:20;;;;;;;27.00;24.17;;;12.10;99.90;;;;;;2603367;54;20146;-68
2023/05/12 21:51:08;;;;;;;41.90;27.13;;;12.00;99.90;;;;;;2603842;54;20153;-69
2023/05/12 21:56:55;;;;;;;28.23;25.20;;;12.00;99.90;;;;;;2603275;54;20193;-69
2023/05/12 22:02:44;;;;;;;32.57;28.03;;;12.00;99.90;;;;;;2603995;46;20193;-69
2023/05/12 22:08:31;;;;;;;29.80;26.17;;;11.90;99.90;;;;;;2608080;39;20541;-69
2023/05/12 22:14:19;;;;;;;31.47;26.20;;;11.60;99.90;;;;;;2606352;54;20150;-67
2023/05/12 22:20:08;;;;;;;28.20;25.30;;;11.60;99.90;;;;;;2603402;54;20418;-70
2023/05/12 22:29:58;;;;;;;30.63;26.23;;;11.60;99.90;;;;;;2607329;39;20787;-69
2023/05/12 22:35:46;;;;;;;32.13;26.63;;;11.70;99.90;;;;;;2606084;54;20422;-68
2023/05/12 22:41:35;;;;;;;33.80;26.30;;;11.70;99.90;;;;;;2607466;54;20660;-69
2023/05/12 22:47:23;;;;;;;30.83;26.83;;;11.60;99.90;;;;;;2608846;54;20399;-69
2023/05/12 22:53:11;;;;;;;30.20;25.03;;;11.40;99.90;;;;;;2613598;54;20138;-68
2023/05/12 22:58:59;;;;;;;28.23;25.23;;;11.30;99.90;;;;;;2612981;39;20450;-68
2023/05/12 23:04:47;;;;;;;29.27;26.03;;;11.20;99.90;;;;;;2606812;54;20317;-69
2023/05/12 23:10:34;;;;;;;30.50;24.93;;;11.20;99.90;;;;;;2609965;54;20142;-70
2023/05/12 23:16:22;;;;;;;30.07;24.83;;;11.10;99.90;;;;;;2606241;54;20161;-69
2023/05/12 23:22:10;;;;;;;29.00;24.83;;;11.00;99.90;;;;;;2604862;54;20199;-69
2023/05/12 23:25:31;;;;;;;28.07;25.17;;;10.90;99.90;;;;;;2603843;54;20439;-70
2023/05/12 23:27:57;;;;;;;27.03;24.23;;;10.80;99.90;;;;;;2603093;54;20263;-69
2023/05/12 23:33:44;;;;;;;30.10;26.83;;;11.00;99.90;;;;;;2606793;54;20821;-68
2023/05/12 23:39:32;;;;;;;33.53;26.37;;;10.70;99.90;;;;;;2606992;54;20126;-69
2023/05/12 23:45:20;;;;;;;27.80;24.80;;;10.60;99.90;;;;;;2606495;54;20664;-68
2023/05/12 23:51:08;;;;;;;31.00;25.80;;;10.50;99.90;;;;;;2607166;54;20158;-69
2023/05/12 23:56:55;;;;;;;29.17;24.77;;;10.30;99.90;;;;;;2606104;54;20147;-69
